Time;durP1;ratioP1;P1;durP2;ratioP2;P2;SDS_P1;SDS_P2;PMS_P1;PMS_P2;Temp;Humidity;BMP_temperature;BMP_pressure;BME280_temperature;BME280_humidity;BME280_pressure;Samples;Min_cycle;Max_cycle;Signal;HPM_P1;HPM_P2
2023/01/10 00:00:06;;;;;;;16.00;3.90;;;;;;;-3.03;55.92;101076.92;105675;1254;62183;-69
2023/01/10 00:02:34;;;;;;;8.60;3.40;;;;;;;-3.05;56.03;101083.84;105718;1258;66775;-69
2023/01/10 00:05:01;;;;;;;17.50;3.50;;;;;;;-3.05;56.21;101087.30;105617;1259;61317;-69
2023/01/10 00:07:28;;;;;;;12.90;3.70;;;;;;;-3.06;56.32;101085.41;105685;1254;65446;-70
2023/01/10 00:09:55;;;;;;;8.70;3.40;;;;;;;-3.06;56.47;101083.87;105655;1258;60474;-70
2023/01/10 00:15:08;;;;;;;23.40;3.70;;;;;;;-3.09;56.62;101090.09;105501;1253;67805;-70
2023/01/10 00:17:35;;;;;;;18.60;3.40;;;;;;;-3.14;56.67;101088.61;105465;1255;60848;-69
2023/01/10 00:20:03;;;;;;;9.80;3.10;;;;;;;-3.19;56.75;101089.52;105320;1256;66153;-69
2023/01/10 00:22:30;;;;;;;16.20;3.40;;;;;;;-3.22;56.94;101091.45;105644;1254;60479;-70
2023/01/10 00:24:57;;;;;;;14.40;3.50;;;;;;;-3.25;57.05;101093.04;105412;1259;60476;-70
2023/01/10 00:27:24;;;;;;;12.10;3.70;;;;;;;-3.27;57.19;101093.77;105564;1258;67616;-68
2023/01/10 00:29:51;;;;;;;10.50;3.50;;;;;;;-3.29;57.41;101099.77;105534;1259;60863;-70
2023/01/10 00:32:19;;;;;;;12.80;3.80;;;;;;;-3.31;57.50;101101.88;105724;1254;66181;-70
2023/01/10 00:34:47;;;;;;;11.60;3.40;;;;;;;-3.33;57.59;101100.02;105394;1254;60546;-69
2023/01/10 00:37:14;;;;;;;10.80;3.60;;;;;;;-3.37;57.64;101096.61;105850;1254;60347;-69
2023/01/10 00:39:41;;;;;;;12.80;4.00;;;;;;;-3.40;57.71;101100.42;105677;1254;67543;-69
2023/01/10 00:44:55;;;;;;;16.30;4.00;;;;;;;-3.46;58.10;101099.30;105326;1268;65533;-69
2023/01/10 00:47:23;;;;;;;7.00;3.60;;;;;;;-3.49;58.14;101095.19;105497;1253;60561;-69
2023/01/10 00:49:49;;;;;;;9.30;4.00;;;;;;;-3.51;58.31;101094.00;105519;1253;60444;-70
2023/01/10 00:52:16;;;;;;;10.30;3.60;;;;;;;-3.53;58.48;101092.65;105468;1254;67761;-70
2023/01/10 00:54:43;;;;;;;10.80;4.00;;;;;;;-3.55;58.61;101094.06;105410;1254;60913;-69
2023/01/10 00:57:11;;;;;;;8.60;3.70;;;;;;;-3.56;58.71;101097.33;105392;1255;65543;-69
2023/01/10 00:59:37;;;;;;;8.70;4.10;;;;;;;-3.56;58.90;101095.11;105811;1253;60598;-68
2023/01/10 01:02:04;;;;;;;7.30;3.50;;;;;;;-3.58;58.94;101092.01;105854;1254;60528;-70
2023/01/10 01:04:33;;;;;;;8.60;3.40;;;;;;;-3.62;58.98;101095.33;105410;1254;66519;-69
2023/01/10 01:07:01;;;;;;;8.90;4.10;;;;;;;-3.67;59.03;101090.38;105382;1261;60458;-69
2023/01/10 01:09:29;;;;;;;6.80;3.50;;;;;;;-3.69;59.13;101090.55;105611;1257;65230;-71
2023/01/10 01:11:57;;;;;;;9.30;3.80;;;;;;;-3.71;59.18;101088.35;105606;1253;60464;-69
2023/01/10 01:14:24;;;;;;;10.00;3.70;;;;;;;-3.72;59.35;101088.02;105513;1260;60518;-69
2023/01/10 01:16:51;;;;;;;7.30;3.80;;;;;;;-3.76;59.48;101091.48;105403;1253;66519;-70
2023/01/10 01:19:18;;;;;;;6.30;3.40;;;;;;;-3.80;59.53;101087.39;105563;1254;60626;-70
2023/01/10 01:21:45;;;;;;;9.10;3.30;;;;;;;-3.83;59.53;101086.74;105654;1258;66555;-69
2023/01/10 01:24:12;;;;;;;7.20;3.20;;;;;;;-3.85;59.64;101080.05;105451;1259;60442;-69
2023/01/10 01:26:41;;;;;;;7.10;3.40;;;;;;;-3.86;59.74;101085.23;105526;1253;61044;-71
2023/01/10 01:29:09;;;;;;;8.10;3.80;;;;;;;-3.88;59.87;101086.78;105545;1253;74730;-70
2023/01/10 01:31:36;;;;;;;11.40;3.70;;;;;;;-3.89;60.02;101084.21;105612;1257;60501;-70
2023/01/10 01:34:03;;;;;;;7.20;3.60;;;;;;;-3.89;60.08;101086.11;105709;1254;66570;-70
2023/01/10 01:36:30;;;;;;;7.50;3.80;;;;;;;-3.90;60.08;101084.56;105560;1254;60517;-69
2023/01/10 01:38:57;;;;;;;8.10;3.60;;;;;;;-3.94;60.15;101083.92;105555;1253;60602;-69
2023/01/10 01:44:14;;;;;;;7.60;3.90;;;;;;;-4.04;60.17;101087.78;105591;1254;60795;-70
2023/01/10 01:46:42;;;;;;;11.20;4.60;;;;;;;-4.10;60.20;101090.58;105526;1254;65420;-69
2023/01/10 01:49:13;;;;;;;9.60;4.20;;;;;;;-4.17;60.23;101093.38;105491;1259;60424;-69
2023/01/10 01:51:44;;;;;;;14.90;4.30;;;;;;;-4.24;60.07;101096.89;105622;1259;60380;-69
2023/01/10 01:54:11;;;;;;;11.00;4.70;;;;;;;-4.33;60.06;101099.52;105532;1258;68123;-70
2023/01/10 01:56:44;;;;;;;10.10;4.30;;;;;;;-4.41;60.14;101098.73;105242;1261;60378;-70
2023/01/10 01:59:16;;;;;;;8.60;4.20;;;;;;;-4.48;60.19;101108.91;105676;1258;65305;-70
2023/01/10 02:01:45;;;;;;;12.30;4.40;;;;;;;-4.55;60.33;101114.27;105592;1259;60359;-70
2023/01/10 02:04:16;;;;;;;9.20;4.80;;;;;;;-4.62;60.37;101122.05;105524;1258;60354;-71
2023/01/10 02:06:44;;;;;;;10.50;4.50;;;;;;;-4.69;60.52;101127.24;105731;1254;67308;-70
2023/01/10 02:09:31;;;;;;;9.80;4.40;;;;;;;-4.75;60.59;101127.09;105311;1256;60477;-69
2023/01/10 02:11:58;;;;;;;9.40;4.40;;;;;;;-4.79;60.70;101134.50;105600;1259;65364;-69
2023/01/10 02:14:25;;;;;;;11.60;4.80;;;;;;;-4.81;60.90;101137.79;105651;1258;60644;-70
2023/01/10 02:16:52;;;;;;;15.40;5.30;;;;;;;-4.82;60.98;101140.02;105573;1257;60412;-71
2023/01/10 02:19:24;;;;;;;10.40;5.10;;;;;;;-4.83;61.06;101139.15;105793;1259;67593;-69
2023/01/10 02:22:10;;;;;;;12.70;5.20;;;;;;;-4.87;61.14;101139.52;105732;1253;60759;-71
2023/01/10 02:24:40;;;;;;;11.60;4.20;;;;;;;-4.92;61.11;101132.84;105556;1254;65211;-69
2023/01/10 02:27:09;;;;;;;9.80;4.50;;;;;;;-4.97;61.12;101124.10;105604;1253;60520;-70
2023/01/10 02:29:43;;;;;;;9.30;4.60;;;;;;;-5.02;61.15;101118.63;105937;1259;60628;-69
2023/01/10 02:32:24;;;;;;;9.20;4.60;;;;;;;-5.06;61.25;101114.86;105694;1253;67560;-70
2023/01/10 02:35:36;;;;;;;9.20;4.40;;;;;;;-5.10;61.34;101114.88;105558;1258;60441;-70
2023/01/10 02:38:06;;;;;;;9.90;5.00;;;;;;;-5.15;61.29;101111.45;105741;1254;65330;-68
2023/01/10 02:41:04;;;;;;;9.50;4.40;;;;;;;-5.20;61.38;101115.61;105477;1254;60401;-69
2023/01/10 02:43:37;;;;;;;10.00;5.10;;;;;;;-5.23;61.46;101111.13;105804;1253;60480;-70
2023/01/10 02:46:13;;;;;;;12.30;4.80;;;;;;;-5.26;61.45;101107.20;105590;1253;66482;-69
2023/01/10 02:48:40;;;;;;;13.90;5.30;;;;;;;-5.33;61.41;101104.48;105609;1253;60685;-69
2023/01/10 02:51:13;;;;;;;9.90;4.90;;;;;;;-5.40;61.40;101100.71;105366;1253;66529;-69
2023/01/10 02:53:43;;;;;;;12.30;5.60;;;;;;;-5.44;61.41;101102.79;105334;1254;60537;-70
2023/01/10 02:56:33;;;;;;;11.50;5.40;;;;;;;-5.47;61.50;101108.30;105513;1254;60433;-69
2023/01/10 02:59:48;;;;;;;15.50;5.30;;;;;;;-5.51;61.50;101110.70;105648;1253;67577;-70
2023/01/10 03:02:32;;;;;;;11.90;5.70;;;;;;;-5.52;61.45;101102.29;105357;1259;60920;-70
2023/01/10 03:05:17;;;;;;;11.30;6.10;;;;;;;-5.54;61.42;101107.27;106117;1254;66683;-71
2023/01/10 03:07:53;;;;;;;13.80;6.00;;;;;;;-5.59;61.38;101101.79;105303;1258;60528;-69
2023/01/10 03:10:31;;;;;;;10.70;5.30;;;;;;;-5.63;61.44;101098.54;105520;1253;60482;-69
2023/01/10 03:13:05;;;;;;;11.80;5.80;;;;;;;-5.68;61.33;101100.61;105616;1253;66554;-70
2023/01/10 03:15:34;;;;;;;15.40;5.90;;;;;;;-5.72;61.23;101103.88;105750;1258;60599;-70
2023/01/10 03:18:03;;;;;;;11.20;5.80;;;;;;;-5.77;61.14;101105.08;105570;1258;65356;-70
2023/01/10 03:20:31;;;;;;;13.40;5.70;;;;;;;-5.82;61.21;101104.23;105736;1253;60435;-70
2023/01/10 03:22:58;;;;;;;10.90;5.90;;;;;;;-5.87;61.05;101108.52;105382;1253;62872;-69
2023/01/10 03:25:26;;;;;;;9.20;5.20;;;;;;;-5.90;60.99;101104.23;105372;1254;75448;-69
2023/01/10 03:28:06;;;;;;;15.80;5.90;;;;;;;-5.92;60.97;101103.23;105527;1258;60906;-69
2023/01/10 03:30:41;;;;;;;11.40;5.50;;;;;;;-5.95;60.92;101100.33;105775;1253;66447;-71
2023/01/10 03:33:08;;;;;;;11.60;5.40;;;;;;;-5.97;60.91;101100.84;105515;1254;60368;-69
2023/01/10 03:36:25;;;;;;;12.90;5.80;;;;;;;-5.98;60.91;101107.70;105570;1259;60546;-69
2023/01/10 03:38:57;;;;;;;16.80;5.20;;;;;;;-6.00;60.91;101115.40;105035;1261;66464;-70
2023/01/10 03:41:49;;;;;;;13.30;6.10;;;;;;;-6.02;60.79;101123.46;105640;1253;60743;-69
2023/01/10 03:44:43;;;;;;;11.30;5.20;;;;;;;-6.05;60.82;101130.50;105547;1259;66274;-71
2023/01/10 03:47:24;;;;;;;10.80;4.80;;;;;;;-6.06;60.75;101123.30;105659;1257;60547;-70
2023/01/10 03:49:58;;;;;;;12.40;5.60;;;;;;;-6.08;60.74;101121.76;105479;1256;60455;-69
2023/01/10 03:52:25;;;;;;;9.90;5.30;;;;;;;-6.07;60.72;101123.82;105547;1253;66662;-70
2023/01/10 03:54:52;;;;;;;15.70;6.60;;;;;;;-6.08;60.68;101118.16;105796;1253;60824;-71
2023/01/10 03:57:21;;;;;;;12.40;5.70;;;;;;;-6.10;60.71;101115.39;105542;1258;66164;-70
2023/01/10 03:59:51;;;;;;;9.40;4.80;;;;;;;-6.11;60.78;101114.72;105817;1253;60470;-70
2023/01/10 04:02:18;;;;;;;10.70;5.80;;;;;;;-6.12;60.85;101115.75;106262;1253;60454;-70
2023/01/10 04:04:45;;;;;;;12.80;5.50;;;;;;;-6.13;60.91;101115.92;105751;1256;66376;-69
2023/01/10 04:07:12;;;;;;;15.60;6.50;;;;;;;-6.12;60.99;101121.06;105508;1258;60359;-69
2023/01/10 04:09:39;;;;;;;10.50;6.10;;;;;;;-6.14;60.96;101123.80;105500;1260;66551;-70
2023/01/10 04:12:06;;;;;;;12.90;5.90;;;;;;;-6.16;60.94;101124.67;105742;1253;60537;-70
2023/01/10 04:14:33;;;;;;;10.20;5.30;;;;;;;-6.16;60.93;101129.48;105646;1258;60458;-70
2023/01/10 04:17:00;;;;;;;13.20;5.80;;;;;;;-6.18;60.78;101129.45;105960;1255;67658;-69
2023/01/10 04:19:27;;;;;;;10.80;5.80;;;;;;;-6.20;60.69;101127.40;105427;1253;60722;-69
2023/01/10 04:21:55;;;;;;;17.70;6.40;;;;;;;-6.21;60.66;101131.34;105602;1253;66527;-70
2023/01/10 04:24:22;;;;;;;18.00;9.50;;;;;;;-6.22;60.67;101132.55;105518;1256;60534;-68
2023/01/10 04:26:49;;;;;;;14.00;7.00;;;;;;;-6.23;60.57;101143.00;105394;1258;60319;-69
2023/01/10 04:29:16;;;;;;;14.30;5.80;;;;;;;-6.24;60.50;101145.40;105533;1259;67783;-70
2023/01/10 04:31:43;;;;;;;10.10;5.40;;;;;;;-6.26;60.34;101145.05;105893;1255;60452;-70
2023/01/10 04:34:11;;;;;;;9.10;5.00;;;;;;;-6.27;60.10;101141.44;105767;1256;66560;-69
2023/01/10 04:36:38;;;;;;;10.30;5.00;;;;;;;-6.29;59.91;101136.30;105633;1258;60474;-68
2023/01/10 04:39:05;;;;;;;11.40;4.60;;;;;;;-6.31;59.70;101130.47;105569;1252;60727;-70
2023/01/10 04:41:32;;;;;;;10.30;5.10;;;;;;;-6.32;59.53;101128.41;105473;1258;67717;-70
2023/01/10 04:43:59;;;;;;;8.70;4.80;;;;;;;-6.34;59.46;101133.23;105435;1258;60636;-69
2023/01/10 04:46:26;;;;;;;12.50;4.80;;;;;;;-6.36;59.35;101138.53;105658;1257;65397;-70
2023/01/10 04:48:53;;;;;;;14.70;5.40;;;;;;;-6.36;59.23;101145.73;105717;1253;60702;-70
2023/01/10 04:51:20;;;;;;;15.20;5.20;;;;;;;-6.36;58.98;101141.95;105675;1254;60466;-69
2023/01/10 04:53:47;;;;;;;9.60;5.40;;;;;;;-6.38;58.51;101135.94;105743;1258;162121;-69
2023/01/10 04:56:16;;;;;;;14.30;5.40;;;;;;;-6.39;58.37;101141.59;105606;1252;60764;-68
2023/01/10 04:58:43;;;;;;;11.00;6.80;;;;;;;-6.39;58.31;101147.92;105478;1259;65481;-70
2023/01/10 05:01:13;;;;;;;14.40;6.00;;;;;;;-6.38;58.17;101150.66;105870;1253;60459;-68
2023/01/10 05:03:40;;;;;;;11.00;4.80;;;;;;;-6.38;58.08;101145.70;105559;1258;60567;-69
2023/01/10 05:06:07;;;;;;;12.70;4.60;;;;;;;-6.38;57.95;101146.73;105387;1258;68099;-69
2023/01/10 05:08:34;;;;;;;10.20;4.80;;;;;;;-6.37;57.79;101145.03;105456;1253;60925;-69
2023/01/10 05:11:01;;;;;;;9.70;4.60;;;;;;;-6.37;57.75;101146.92;105454;1253;66599;-69
2023/01/10 05:13:27;;;;;;;11.30;4.80;;;;;;;-6.36;57.72;101152.92;105416;1253;60455;-68
2023/01/10 05:15:55;;;;;;;12.30;4.70;;;;;;;-6.35;57.73;101154.64;105333;1253;60320;-68
2023/01/10 05:18:23;;;;;;;14.20;5.40;;;;;;;-6.32;57.93;101159.60;105420;1253;66634;-69
2023/01/10 05:20:50;;;;;;;12.70;5.30;;;;;;;-6.30;58.05;101156.34;105518;1253;60753;-69
2023/01/10 05:23:17;;;;;;;10.00;5.20;;;;;;;-6.27;58.17;101154.48;105445;1253;66716;-69
2023/01/10 05:25:44;;;;;;;9.90;4.90;;;;;;;-6.24;58.26;101151.56;105605;1257;60438;-69
2023/01/10 05:28:11;;;;;;;13.20;5.10;;;;;;;-6.21;58.40;101152.94;105378;1257;60447;-69
2023/01/10 05:30:38;;;;;;;12.00;6.80;;;;;;;-6.18;58.52;101158.77;105441;1253;67662;-70
2023/01/10 05:33:05;;;;;;;15.20;5.30;;;;;;;-6.16;58.54;101161.02;105389;1253;60644;-69
2023/01/10 05:35:32;;;;;;;11.50;5.40;;;;;;;-6.15;58.60;101163.59;105371;1253;66632;-69
2023/01/10 05:37:59;;;;;;;17.40;5.70;;;;;;;-6.13;58.74;101154.66;105472;1254;60515;-69
2023/01/10 05:40:27;;;;;;;13.60;5.20;;;;;;;-6.11;58.79;101150.38;105625;1253;60560;-70
2023/01/10 05:42:54;;;;;;;15.30;6.00;;;;;;;-6.09;58.85;101151.91;105436;1253;66708;-69
2023/01/10 05:45:21;;;;;;;8.90;5.30;;;;;;;-6.08;58.97;101154.15;105295;1259;60647;-69
2023/01/10 05:47:48;;;;;;;17.70;5.90;;;;;;;-6.07;59.11;101155.03;105459;1253;66820;-69
2023/01/10 05:50:15;;;;;;;15.20;6.20;;;;;;;-6.07;59.21;101155.02;105431;1254;60409;-70
2023/01/10 05:52:44;;;;;;;20.30;6.20;;;;;;;-6.07;59.30;101158.63;105191;1255;60460;-69
2023/01/10 05:55:11;;;;;;;12.30;6.00;;;;;;;-6.07;59.36;101167.55;105393;1255;67688;-68
2023/01/10 05:57:38;;;;;;;19.40;6.30;;;;;;;-6.06;59.36;101163.42;105627;1253;60550;-68
2023/01/10 06:00:06;;;;;;;17.00;5.80;;;;;;;-6.06;59.14;101161.54;105830;1259;65400;-70
2023/01/10 06:02:37;;;;;;;14.50;6.00;;;;;;;-6.05;59.06;101165.30;105620;1257;65225;-70
2023/01/10 06:05:05;;;;;;;9.80;5.50;;;;;;;-6.04;58.88;101168.39;105661;1253;60525;-70
2023/01/10 06:07:32;;;;;;;16.90;5.90;;;;;;;-6.03;58.62;101169.59;105939;1253;67334;-71
2023/01/10 06:09:59;;;;;;;13.60;5.90;;;;;;;-6.02;58.55;101171.81;106055;1253;61230;-71
2023/01/10 06:12:26;;;;;;;14.90;6.20;;;;;;;-6.00;58.28;101174.55;105847;1254;65252;-72
2023/01/10 06:14:53;;;;;;;11.50;5.40;;;;;;;-6.00;57.99;101176.61;105795;1258;60544;-71
2023/01/10 06:17:20;;;;;;;17.90;5.90;;;;;;;-6.00;57.87;101181.41;105584;1254;60624;-70
2023/01/10 06:19:54;;;;;;;9.60;5.40;;;;;;;-5.99;57.65;101183.14;105843;1253;66576;-71
2023/01/10 06:22:41;;;;;;;9.50;5.20;;;;;;;-5.98;57.58;101185.54;105951;1253;60432;-69
2023/01/10 06:25:09;;;;;;;15.20;5.10;;;;;;;-5.96;57.52;101191.89;105395;1253;66855;-67
2023/01/10 06:27:40;;;;;;;9.40;4.80;;;;;;;-5.94;57.52;101196.36;105869;1254;60312;-70
2023/01/10 06:30:09;;;;;;;10.80;4.90;;;;;;;-5.91;57.54;101199.77;106021;1253;60552;-69
2023/01/10 06:32:36;;;;;;;10.60;5.10;;;;;;;-5.88;57.60;101194.61;105883;1253;67797;-69
2023/01/10 06:35:04;;;;;;;10.90;5.70;;;;;;;-5.85;57.55;101190.33;105982;1258;60332;-68
2023/01/10 06:37:31;;;;;;;14.30;5.70;;;;;;;-5.81;57.65;101195.98;106329;1255;65095;-70
2023/01/10 06:39:58;;;;;;;13.10;5.50;;;;;;;-5.77;57.91;101190.50;105711;1253;60468;-71
2023/01/10 06:42:25;;;;;;;12.60;5.10;;;;;;;-5.72;58.01;101189.98;105626;1253;60455;-72
2023/01/10 06:44:52;;;;;;;13.70;5.30;;;;;;;-5.68;58.11;101189.64;105890;1254;66602;-69
2023/01/10 06:47:19;;;;;;;11.50;5.60;;;;;;;-5.65;58.08;101187.24;105537;1253;61059;-69
2023/01/10 06:49:46;;;;;;;13.70;4.90;;;;;;;-5.63;58.03;101186.54;105497;1254;66515;-71
2023/01/10 06:52:13;;;;;;;12.90;5.10;;;;;;;-5.61;58.07;101186.54;105702;1253;60477;-70
2023/01/10 06:54:40;;;;;;;13.30;5.10;;;;;;;-5.59;57.99;101188.10;105535;1258;60538;-69
2023/01/10 06:57:07;;;;;;;10.80;5.40;;;;;;;-5.57;57.94;101189.47;105787;1258;67673;-70
2023/01/10 06:59:35;;;;;;;13.40;5.00;;;;;;;-5.54;57.96;101187.07;105451;1257;60312;-69
2023/01/10 07:02:02;;;;;;;8.30;4.40;;;;;;;-5.51;57.83;101189.80;105651;1254;65429;-69
2023/01/10 07:04:29;;;;;;;13.00;4.70;;;;;;;-5.49;57.63;101192.05;105580;1253;60963;-69
2023/01/10 07:06:56;;;;;;;11.00;4.60;;;;;;;-5.47;57.62;101187.23;105498;1254;60573;-70
2023/01/10 07:09:23;;;;;;;11.20;5.00;;;;;;;-5.45;57.61;101191.34;105409;1258;66653;-68
2023/01/10 07:11:50;;;;;;;12.00;4.60;;;;;;;-5.43;57.52;101193.40;105889;1256;61495;-69
2023/01/10 07:14:17;;;;;;;12.90;5.20;;;;;;;-5.42;57.36;101191.69;105570;1254;66530;-70
2023/01/10 07:16:44;;;;;;;13.30;5.00;;;;;;;-5.43;57.07;101182.42;105557;1259;60460;-70
2023/01/10 07:19:12;;;;;;;9.40;4.50;;;;;;;-5.44;56.94;101183.63;105507;1254;60683;-73
2023/01/10 07:21:40;;;;;;;11.30;4.40;;;;;;;-5.45;56.87;101185.33;105434;1258;67483;-69
2023/01/10 07:24:07;;;;;;;9.20;4.60;;;;;;;-5.44;56.84;101184.13;105469;1253;60606;-70
2023/01/10 07:26:35;;;;;;;13.60;5.30;;;;;;;-5.42;56.87;101187.55;105516;1254;66272;-70
2023/01/10 07:29:01;;;;;;;12.90;5.30;;;;;;;-5.40;57.06;101191.85;105449;1254;60371;-71
2023/01/10 07:31:28;;;;;;;10.30;5.00;;;;;;;-5.38;57.14;101197.18;105626;1257;60370;-68
2023/01/10 07:33:55;;;;;;;11.30;4.60;;;;;;;-5.36;57.11;101193.23;105586;1253;67704;-74
2023/01/10 07:36:22;;;;;;;9.80;5.10;;;;;;;-5.32;56.92;101197.67;105561;1253;61006;-75
2023/01/10 07:38:49;;;;;;;12.00;5.60;;;;;;;-5.29;56.55;101195.27;105612;1254;66619;-70
2023/01/10 07:41:16;;;;;;;12.10;5.70;;;;;;;-5.27;56.29;101195.79;105613;1254;60376;-69
2023/01/10 07:43:43;;;;;;;18.50;6.20;;;;;;;-5.25;56.18;101194.41;105445;1253;60566;-71
2023/01/10 07:46:11;;;;;;;13.80;5.50;;;;;;;-5.23;56.20;101189.59;105630;1253;66476;-71
2023/01/10 07:48:40;;;;;;;12.00;5.70;;;;;;;-5.18;56.04;101190.97;105660;1256;60589;-69
2023/01/10 07:51:07;;;;;;;11.50;5.60;;;;;;;-5.15;55.76;101191.47;105581;1253;66313;-70
2023/01/10 07:53:35;;;;;;;9.50;5.20;;;;;;;-5.13;55.56;101193.88;105608;1253;60547;-70
2023/01/10 07:56:02;;;;;;;11.00;5.00;;;;;;;-5.09;55.35;101197.30;105706;1253;60523;-70
2023/01/10 07:58:30;;;;;;;9.40;4.60;;;;;;;-5.06;55.04;101201.77;105380;1253;66592;-69
2023/01/10 08:00:57;;;;;;;13.30;5.50;;;;;;;-5.05;54.81;101207.07;106274;1253;60815;-70
2023/01/10 08:03:25;;;;;;;11.30;5.40;;;;;;;-5.04;54.72;101205.69;105883;1257;66263;-70
2023/01/10 08:06:03;;;;;;;9.60;5.20;;;;;;;-5.01;54.47;101207.59;106032;1256;60487;-70
2023/01/10 08:08:31;;;;;;;11.30;5.40;;;;;;;-4.99;54.25;101213.94;105614;1254;60593;-70
2023/01/10 08:11:01;;;;;;;12.10;5.60;;;;;;;-4.98;54.10;101211.19;106106;1255;67813;-72
2023/01/10 08:13:29;;;;;;;13.80;5.40;;;;;;;-4.95;53.96;101208.77;105811;1258;60277;-72
2023/01/10 08:15:56;;;;;;;9.30;5.00;;;;;;;-4.93;53.74;101207.56;105468;1258;65502;-70
2023/01/10 08:18:23;;;;;;;12.40;5.10;;;;;;;-4.92;53.36;101211.35;105988;1254;60366;-69
2023/01/10 08:20:51;;;;;;;12.00;5.00;;;;;;;-4.91;53.05;101215.13;105483;1258;62020;-71
2023/01/10 08:23:19;;;;;;;12.30;4.60;;;;;;;-4.90;52.94;101209.10;105573;1253;66805;-71
2023/01/10 08:25:46;;;;;;;6.60;3.90;;;;;;;-4.87;52.76;101210.46;106052;1256;60377;-71
2023/01/10 08:28:13;;;;;;;7.00;3.80;;;;;;;-4.85;52.52;101211.83;105581;1254;65684;-71
2023/01/10 08:30:40;;;;;;;8.90;4.40;;;;;;;-4.83;52.55;101210.11;105828;1258;60394;-71
2023/01/10 08:33:07;;;;;;;17.60;5.40;;;;;;;-4.81;52.42;101205.48;105892;1253;60588;-71
2023/01/10 08:35:42;;;;;;;14.70;5.10;;;;;;;-4.80;52.13;101213.88;105430;1258;67667;-71
2023/01/10 08:38:09;;;;;;;11.20;4.80;;;;;;;-4.78;51.99;101209.58;105474;1258;60499;-69
2023/01/10 08:40:36;;;;;;;14.10;4.00;;;;;;;-4.78;51.76;101218.00;105545;1258;65598;-71
2023/01/10 08:43:11;;;;;;;12.20;3.90;;;;;;;-4.77;51.70;101216.27;105599;1259;60457;-71
2023/01/10 08:45:38;;;;;;;7.50;4.30;;;;;;;-4.77;51.59;101214.89;105859;1258;60320;-69
2023/01/10 08:48:08;;;;;;;12.60;4.70;;;;;;;-4.76;51.43;101221.94;105575;1254;67278;-70
2023/01/10 08:50:35;;;;;;;10.00;4.30;;;;;;;-4.76;51.25;101220.55;105493;1258;60457;-70
2023/01/10 08:53:02;;;;;;;10.70;4.30;;;;;;;-4.75;51.16;101217.46;105882;1254;66413;-71
2023/01/10 08:55:30;;;;;;;8.00;4.20;;;;;;;-4.75;51.05;101213.68;105793;1253;60539;-70
2023/01/10 08:58:00;;;;;;;6.40;3.80;;;;;;;-4.75;50.97;101208.35;105495;1255;60381;-70
2023/01/10 09:00:28;;;;;;;9.90;4.50;;;;;;;-4.73;50.96;101210.41;105456;1258;68028;-69
2023/01/10 09:02:55;;;;;;;13.10;4.70;;;;;;;-4.71;50.71;101212.14;105673;1258;60322;-79
2023/01/10 09:05:24;;;;;;;9.60;4.30;;;;;;;-4.70;50.58;101214.71;105550;1253;66236;-72
2023/01/10 09:07:58;;;;;;;8.60;4.20;;;;;;;-4.69;50.41;101211.78;106287;1258;60459;-70
2023/01/10 09:10:27;;;;;;;11.40;4.00;;;;;;;-4.68;50.10;101209.54;105600;1253;60388;-69
2023/01/10 09:12:54;;;;;;;10.90;4.30;;;;;;;-4.68;50.16;101210.05;106189;1253;67727;-69
2023/01/10 09:15:25;;;;;;;9.20;4.50;;;;;;;-4.65;50.26;101211.06;106022;1253;60544;-71
2023/01/10 09:17:56;;;;;;;12.60;4.90;;;;;;;-4.61;50.35;101207.80;107619;1254;65631;-70
2023/01/10 09:20:24;;;;;;;13.20;5.10;;;;;;;-4.57;50.29;101208.80;106183;1253;63907;-70
2023/01/10 09:22:51;;;;;;;13.50;5.20;;;;;;;-4.52;50.35;101208.97;105400;1258;60455;-70
2023/01/10 09:25:18;;;;;;;9.90;4.40;;;;;;;-4.48;50.33;101214.44;105303;1253;67947;-72
2023/01/10 09:27:45;;;;;;;8.10;4.30;;;;;;;-4.44;50.17;101209.96;105806;1253;60362;-71
2023/01/10 09:30:13;;;;;;;13.20;4.80;;;;;;;-4.41;50.24;101206.85;105482;1256;65486;-68
2023/01/10 09:32:39;;;;;;;10.70;5.00;;;;;;;-4.38;50.08;101203.73;105947;1253;60526;-69
2023/01/10 09:35:07;;;;;;;7.00;4.30;;;;;;;-4.34;50.18;101202.52;105592;1258;60442;-70
2023/01/10 09:37:34;;;;;;;10.80;4.40;;;;;;;-4.29;50.21;101202.15;105927;1257;67417;-68
2023/01/10 09:40:01;;;;;;;8.70;3.80;;;;;;;-4.26;49.94;101204.19;105710;1253;60801;-72
2023/01/10 09:43:10;;;;;;;9.00;4.40;;;;;;;-4.24;49.81;101206.60;105752;1256;66450;-73
2023/01/10 09:45:50;;;;;;;10.00;4.10;;;;;;;-4.22;49.80;101206.59;105379;1258;60364;-70
2023/01/10 09:48:23;;;;;;;8.00;4.40;;;;;;;-4.21;49.83;101209.48;105833;1254;60362;-74
2023/01/10 09:51:09;;;;;;;8.40;4.30;;;;;;;-4.17;49.88;101206.70;105621;1253;66741;-76
2023/01/10 09:53:37;;;;;;;11.40;4.50;;;;;;;-4.13;49.70;101205.49;105926;1259;61074;-76
2023/01/10 09:56:05;;;;;;;7.40;3.60;;;;;;;-4.12;49.52;101206.88;106042;1253;66268;-72
2023/01/10 09:58:33;;;;;;;9.70;3.90;;;;;;;-4.10;49.60;101204.27;105323;1256;60564;-72
2023/01/10 10:01:09;;;;;;;9.30;4.20;;;;;;;-4.07;49.72;101200.80;105784;1255;60386;-73
2023/01/10 10:03:53;;;;;;;8.20;4.10;;;;;;;-4.05;49.58;101195.98;105380;1254;67594;-73
2023/01/10 10:06:21;;;;;;;9.30;4.30;;;;;;;-4.01;49.51;101192.70;105477;1259;60646;-74
2023/01/10 10:08:48;;;;;;;6.50;4.00;;;;;;;-3.99;49.47;101190.95;105385;1253;66738;-76
2023/01/10 10:11:24;;;;;;;13.50;4.80;;;;;;;-3.96;49.55;101190.42;105387;1258;60511;-72
2023/01/10 10:14:04;;;;;;;9.90;4.50;;;;;;;-3.92;49.71;101195.73;106001;1253;60475;-74
2023/01/10 10:16:40;;;;;;;11.10;4.40;;;;;;;-3.88;49.65;101193.27;105273;1253;66347;-73
2023/01/10 10:19:19;;;;;;;8.50;4.00;;;;;;;-3.86;49.51;101190.52;106010;1253;60661;-74
2023/01/10 10:22:44;;;;;;;10.00;4.30;;;;;;;-3.83;49.50;101190.85;105500;1258;66719;-72
2023/01/10 10:25:17;;;;;;;9.60;4.00;;;;;;;-3.82;49.27;101188.59;105354;1265;60569;-73
2023/01/10 10:28:05;;;;;;;11.40;4.10;;;;;;;-3.83;49.07;101185.35;105106;1258;60342;-73
2023/01/10 10:30:45;;;;;;;10.20;4.30;;;;;;;-3.85;48.99;101183.98;105215;1259;67745;-72
2023/01/10 10:33:21;;;;;;;8.90;4.40;;;;;;;-3.86;49.03;101182.95;105081;1261;60446;-71
2023/01/10 10:35:59;;;;;;;8.80;4.40;;;;;;;-3.85;49.11;101180.55;105525;1255;66326;-72
2023/01/10 10:38:28;;;;;;;7.40;3.90;;;;;;;-3.83;49.20;101179.83;105660;1253;60558;-75
2023/01/10 10:40:57;;;;;;;11.20;4.70;;;;;;;-3.80;49.18;101180.14;106077;1254;60448;-73
2023/01/10 10:43:33;;;;;;;9.70;4.60;;;;;;;-3.77;49.30;101180.13;105348;1256;67563;-73
2023/01/10 10:46:08;;;;;;;10.50;5.00;;;;;;;-3.74;49.18;101178.56;105308;1253;61089;-77
2023/01/10 10:48:38;;;;;;;9.70;5.10;;;;;;;-3.72;49.19;101176.66;105449;1261;66563;-74
2023/01/10 10:51:15;;;;;;;12.50;4.70;;;;;;;-3.69;49.07;101182.98;105579;1259;60876;-75
2023/01/10 10:53:47;;;;;;;13.10;5.50;;;;;;;-3.68;49.18;101185.21;106173;1253;60511;-71
2023/01/10 10:59:17;;;;;;;10.80;4.70;;;;;;;-3.57;49.25;101184.44;105257;1259;60957;-74
2023/01/10 11:01:48;;;;;;;12.00;4.70;;;;;;;-3.52;49.12;101184.39;105714;1253;66390;-70
2023/01/10 11:04:22;;;;;;;10.00;4.70;;;;;;;-3.46;49.01;101187.80;105393;1261;60479;-68
2023/01/10 11:06:50;;;;;;;8.40;4.80;;;;;;;-3.40;48.84;101183.25;105241;1258;60439;-69
2023/01/10 11:12:31;;;;;;;9.40;4.70;;;;;;;-3.31;48.15;101179.37;104789;1264;60343;-72
2023/01/10 11:15:07;;;;;;;8.00;4.50;;;;;;;-3.28;47.94;101184.52;105263;1262;65587;-70
2023/01/10 11:17:39;;;;;;;8.50;4.40;;;;;;;-3.25;47.64;101185.71;105184;1256;60451;-71
2023/01/10 11:20:16;;;;;;;8.30;3.70;;;;;;;-3.24;47.55;101191.71;105170;1253;59416;-72
2023/01/10 11:22:48;;;;;;;11.90;4.80;;;;;;;-3.21;47.26;101189.09;105274;1253;67727;-69
2023/01/10 11:25:17;;;;;;;13.30;5.00;;;;;;;-3.20;47.07;101191.83;105517;1253;60832;-71
2023/01/10 11:27:49;;;;;;;10.00;4.40;;;;;;;-3.18;46.93;101194.92;105912;1257;65026;-72
2023/01/10 11:30:29;;;;;;;12.10;4.90;;;;;;;-3.15;46.79;101199.04;105392;1258;60455;-69
2023/01/10 11:33:01;;;;;;;9.20;5.40;;;;;;;-3.11;46.83;101198.46;105469;1258;59207;-73
2023/01/10 11:35:36;;;;;;;14.90;6.40;;;;;;;-3.06;46.92;101199.12;105432;1258;67530;-70
2023/01/10 11:38:05;;;;;;;16.20;6.00;;;;;;;-3.01;46.69;101203.36;105608;1253;60610;-70
2023/01/10 11:40:34;;;;;;;14.20;5.80;;;;;;;-2.95;46.70;101202.95;105235;1259;65157;-72